sensor_id;sensor_type;location;lat;lon;timestamp;P1;durP1;ratioP1;P2;durP2;ratioP2
42616;SDS011;28250;52.320;0.360;2023-07-13T00:01:46;6.80;;;2.65;;
42616;SDS011;28250;52.320;0.360;2023-07-13T00:04:17;5.07;;;2.10;;
42616;SDS011;28250;52.320;0.360;2023-07-13T00:06:45;4.32;;;2.22;;
42616;SDS011;28250;52.320;0.360;2023-07-13T00:09:12;5.50;;;2.10;;
42616;SDS011;28250;52.320;0.360;2023-07-13T00:11:39;4.28;;;1.90;;
42616;SDS011;28250;52.320;0.360;2023-07-13T00:14:06;5.45;;;2.00;;
42616;SDS011;28250;52.320;0.360;2023-07-13T00:16:34;6.40;;;2.00;;
42616;SDS011;28250;52.320;0.360;2023-07-13T00:19:01;7.07;;;2.20;;
42616;SDS011;28250;52.320;0.360;2023-07-13T00:21:28;7.65;;;2.78;;
42616;SDS011;28250;52.320;0.360;2023-07-13T00:23:54;6.32;;;2.28;;
42616;SDS011;28250;52.320;0.360;2023-07-13T00:26:21;5.45;;;2.05;;
42616;SDS011;28250;52.320;0.360;2023-07-13T00:28:47;5.72;;;2.10;;
42616;SDS011;28250;52.320;0.360;2023-07-13T00:31:14;7.45;;;2.03;;
42616;SDS011;28250;52.320;0.360;2023-07-13T00:33:40;8.18;;;2.47;;
42616;SDS011;28250;52.320;0.360;2023-07-13T00:36:08;6.97;;;2.63;;
42616;SDS011;28250;52.320;0.360;2023-07-13T00:38:35;6.45;;;2.22;;
42616;SDS011;28250;52.320;0.360;2023-07-13T00:41:02;5.15;;;2.28;;
42616;SDS011;28250;52.320;0.360;2023-07-13T00:48:23;8.25;;;2.22;;
42616;SDS011;28250;52.320;0.360;2023-07-13T00:50:55;7.60;;;2.20;;
42616;SDS011;28250;52.320;0.360;2023-07-13T00:53:23;4.65;;;2.33;;
42616;SDS011;28250;52.320;0.360;2023-07-13T00:55:52;6.03;;;2.00;;
42616;SDS011;28250;52.320;0.360;2023-07-13T00:58:21;6.18;;;2.35;;
42616;SDS011;28250;52.320;0.360;2023-07-13T01:03:16;4.55;;;1.92;;
42616;SDS011;28250;52.320;0.360;2023-07-13T01:05:42;5.22;;;1.90;;
42616;SDS011;28250;52.320;0.360;2023-07-13T01:08:09;5.57;;;2.60;;
42616;SDS011;28250;52.320;0.360;2023-07-13T01:10:36;5.00;;;2.22;;
42616;SDS011;28250;52.320;0.360;2023-07-13T01:13:10;6.88;;;2.22;;
42616;SDS011;28250;52.320;0.360;2023-07-13T01:15:43;6.75;;;2.08;;
42616;SDS011;28250;52.320;0.360;2023-07-13T01:18:17;3.50;;;2.15;;
42616;SDS011;28250;52.320;0.360;2023-07-13T01:20:56;7.85;;;2.22;;
42616;SDS011;28250;52.320;0.360;2023-07-13T01:23:32;4.37;;;2.17;;
42616;SDS011;28250;52.320;0.360;2023-07-13T01:25:58;6.90;;;2.78;;
42616;SDS011;28250;52.320;0.360;2023-07-13T01:28:26;11.52;;;2.70;;
42616;SDS011;28250;52.320;0.360;2023-07-13T01:35:46;7.40;;;3.13;;
42616;SDS011;28250;52.320;0.360;2023-07-13T01:38:16;5.63;;;2.60;;
42616;SDS011;28250;52.320;0.360;2023-07-13T01:40:45;7.18;;;2.63;;
42616;SDS011;28250;52.320;0.360;2023-07-13T01:43:11;9.50;;;2.53;;
42616;SDS011;28250;52.320;0.360;2023-07-13T01:45:38;7.10;;;2.27;;
42616;SDS011;28250;52.320;0.360;2023-07-13T01:48:05;8.27;;;2.33;;
42616;SDS011;28250;52.320;0.360;2023-07-13T01:50:34;6.13;;;2.45;;
42616;SDS011;28250;52.320;0.360;2023-07-13T01:53:01;6.88;;;2.20;;
42616;SDS011;28250;52.320;0.360;2023-07-13T01:55:27;8.02;;;2.58;;
42616;SDS011;28250;52.320;0.360;2023-07-13T01:57:54;5.10;;;2.25;;
42616;SDS011;28250;52.320;0.360;2023-07-13T02:00:21;5.63;;;2.17;;
42616;SDS011;28250;52.320;0.360;2023-07-13T02:02:48;9.73;;;2.90;;
42616;SDS011;28250;52.320;0.360;2023-07-13T02:05:14;7.00;;;2.63;;
42616;SDS011;28250;52.320;0.360;2023-07-13T02:07:41;7.57;;;3.08;;
42616;SDS011;28250;52.320;0.360;2023-07-13T02:10:08;6.10;;;2.67;;
42616;SDS011;28250;52.320;0.360;2023-07-13T02:12:35;4.90;;;2.70;;
42616;SDS011;28250;52.320;0.360;2023-07-13T02:15:03;13.57;;;2.63;;
42616;SDS011;28250;52.320;0.360;2023-07-13T02:17:31;8.27;;;2.95;;
42616;SDS011;28250;52.320;0.360;2023-07-13T02:19:57;8.20;;;2.47;;
42616;SDS011;28250;52.320;0.360;2023-07-13T02:22:24;6.37;;;2.67;;
42616;SDS011;28250;52.320;0.360;2023-07-13T02:24:50;8.00;;;2.70;;
42616;SDS011;28250;52.320;0.360;2023-07-13T02:27:17;6.63;;;2.97;;
42616;SDS011;28250;52.320;0.360;2023-07-13T02:29:44;11.13;;;2.97;;
42616;SDS011;28250;52.320;0.360;2023-07-13T02:32:10;8.48;;;3.40;;
42616;SDS011;28250;52.320;0.360;2023-07-13T02:34:37;8.30;;;3.03;;
42616;SDS011;28250;52.320;0.360;2023-07-13T02:37:03;13.38;;;3.95;;
42616;SDS011;28250;52.320;0.360;2023-07-13T02:39:30;7.10;;;2.97;;
42616;SDS011;28250;52.320;0.360;2023-07-13T02:41:58;7.72;;;2.80;;
42616;SDS011;28250;52.320;0.360;2023-07-13T02:44:25;9.57;;;2.80;;
42616;SDS011;28250;52.320;0.360;2023-07-13T02:46:52;4.90;;;2.83;;
42616;SDS011;28250;52.320;0.360;2023-07-13T02:49:18;12.48;;;3.25;;
42616;SDS011;28250;52.320;0.360;2023-07-13T02:51:45;5.95;;;2.78;;
42616;SDS011;28250;52.320;0.360;2023-07-13T02:54:11;6.88;;;2.97;;
42616;SDS011;28250;52.320;0.360;2023-07-13T02:56:39;8.82;;;2.75;;
42616;SDS011;28250;52.320;0.360;2023-07-13T02:59:06;32.75;;;4.10;;
42616;SDS011;28250;52.320;0.360;2023-07-13T03:01:33;7.75;;;2.63;;
42616;SDS011;28250;52.320;0.360;2023-07-13T03:04:01;7.28;;;2.90;;
42616;SDS011;28250;52.320;0.360;2023-07-13T03:06:30;9.02;;;2.85;;
42616;SDS011;28250;52.320;0.360;2023-07-13T03:08:58;9.30;;;2.60;;
42616;SDS011;28250;52.320;0.360;2023-07-13T03:11:30;15.55;;;3.88;;
42616;SDS011;28250;52.320;0.360;2023-07-13T03:14:17;12.18;;;2.80;;
42616;SDS011;28250;52.320;0.360;2023-07-13T03:16:43;6.88;;;2.90;;
42616;SDS011;28250;52.320;0.360;2023-07-13T03:21:38;12.05;;;2.95;;
42616;SDS011;28250;52.320;0.360;2023-07-13T03:24:04;6.20;;;2.67;;
42616;SDS011;28250;52.320;0.360;2023-07-13T03:26:31;10.90;;;3.50;;
42616;SDS011;28250;52.320;0.360;2023-07-13T03:28:57;5.80;;;3.10;;
42616;SDS011;28250;52.320;0.360;2023-07-13T03:31:25;8.50;;;3.37;;
42616;SDS011;28250;52.320;0.360;2023-07-13T03:33:54;7.15;;;3.00;;
42616;SDS011;28250;52.320;0.360;2023-07-13T03:36:22;6.70;;;3.03;;
42616;SDS011;28250;52.320;0.360;2023-07-13T03:38:54;9.25;;;3.72;;
42616;SDS011;28250;52.320;0.360;2023-07-13T03:41:26;7.80;;;3.08;;
42616;SDS011;28250;52.320;0.360;2023-07-13T03:43:54;8.52;;;3.60;;
42616;SDS011;28250;52.320;0.360;2023-07-13T03:46:23;6.63;;;2.92;;
42616;SDS011;28250;52.320;0.360;2023-07-13T03:48:49;6.63;;;3.00;;
42616;SDS011;28250;52.320;0.360;2023-07-13T03:51:17;6.95;;;2.95;;
42616;SDS011;28250;52.320;0.360;2023-07-13T03:53:44;9.75;;;2.83;;
42616;SDS011;28250;52.320;0.360;2023-07-13T03:56:14;6.88;;;2.55;;
42616;SDS011;28250;52.320;0.360;2023-07-13T03:58:43;8.70;;;3.38;;
42616;SDS011;28250;52.320;0.360;2023-07-13T04:01:17;4.43;;;2.80;;
42616;SDS011;28250;52.320;0.360;2023-07-13T04:03:44;7.18;;;3.20;;
42616;SDS011;28250;52.320;0.360;2023-07-13T04:06:16;9.55;;;3.03;;
42616;SDS011;28250;52.320;0.360;2023-07-13T04:08:47;13.68;;;3.10;;
42616;SDS011;28250;52.320;0.360;2023-07-13T04:11:16;6.93;;;2.85;;
42616;SDS011;28250;52.320;0.360;2023-07-13T04:13:43;6.38;;;2.67;;
42616;SDS011;28250;52.320;0.360;2023-07-13T04:18:37;7.00;;;2.90;;
42616;SDS011;28250;52.320;0.360;2023-07-13T04:21:04;10.45;;;2.80;;
42616;SDS011;28250;52.320;0.360;2023-07-13T04:23:30;8.85;;;3.65;;
42616;SDS011;28250;52.320;0.360;2023-07-13T04:25:56;8.45;;;2.75;;
42616;SDS011;28250;52.320;0.360;2023-07-13T04:28:23;13.38;;;3.22;;
42616;SDS011;28250;52.320;0.360;2023-07-13T04:30:50;9.02;;;3.13;;
42616;SDS011;28250;52.320;0.360;2023-07-13T04:33:17;15.87;;;3.90;;
42616;SDS011;28250;52.320;0.360;2023-07-13T04:35:48;5.10;;;2.92;;
42616;SDS011;28250;52.320;0.360;2023-07-13T04:38:20;8.38;;;3.50;;
42616;SDS011;28250;52.320;0.360;2023-07-13T04:40:47;11.63;;;2.65;;
42616;SDS011;28250;52.320;0.360;2023-07-13T04:43:13;8.97;;;2.77;;
42616;SDS011;28250;52.320;0.360;2023-07-13T04:45:40;10.10;;;2.97;;
42616;SDS011;28250;52.320;0.360;2023-07-13T04:48:06;8.15;;;3.28;;
42616;SDS011;28250;52.320;0.360;2023-07-13T04:50:35;9.63;;;3.40;;
42616;SDS011;28250;52.320;0.360;2023-07-13T04:53:02;11.32;;;3.25;;
42616;SDS011;28250;52.320;0.360;2023-07-13T04:55:29;12.45;;;3.40;;
42616;SDS011;28250;52.320;0.360;2023-07-13T04:57:56;8.05;;;3.38;;
42616;SDS011;28250;52.320;0.360;2023-07-13T05:00:26;14.55;;;4.35;;
42616;SDS011;28250;52.320;0.360;2023-07-13T05:02:54;11.00;;;2.92;;
42616;SDS011;28250;52.320;0.360;2023-07-13T05:05:21;6.20;;;2.90;;
42616;SDS011;28250;52.320;0.360;2023-07-13T05:07:48;10.32;;;3.00;;
42616;SDS011;28250;52.320;0.360;2023-07-13T05:10:14;6.28;;;2.95;;
42616;SDS011;28250;52.320;0.360;2023-07-13T05:12:40;8.13;;;3.53;;
42616;SDS011;28250;52.320;0.360;2023-07-13T05:15:07;10.77;;;3.08;;
42616;SDS011;28250;52.320;0.360;2023-07-13T05:17:34;10.80;;;3.20;;
42616;SDS011;28250;52.320;0.360;2023-07-13T05:20:00;8.38;;;2.47;;
42616;SDS011;28250;52.320;0.360;2023-07-13T05:22:27;7.68;;;2.85;;
42616;SDS011;28250;52.320;0.360;2023-07-13T05:24:53;4.65;;;2.30;;
42616;SDS011;28250;52.320;0.360;2023-07-13T05:27:20;12.38;;;3.45;;
42616;SDS011;28250;52.320;0.360;2023-07-13T05:29:46;9.27;;;2.72;;
42616;SDS011;28250;52.320;0.360;2023-07-13T05:32:13;4.72;;;2.67;;
42616;SDS011;28250;52.320;0.360;2023-07-13T05:34:39;7.88;;;3.03;;
42616;SDS011;28250;52.320;0.360;2023-07-13T05:37:06;7.78;;;3.00;;
42616;SDS011;28250;52.320;0.360;2023-07-13T05:39:33;6.90;;;2.83;;
42616;SDS011;28250;52.320;0.360;2023-07-13T05:41:59;10.07;;;2.60;;
42616;SDS011;28250;52.320;0.360;2023-07-13T05:44:25;7.32;;;3.13;;
42616;SDS011;28250;52.320;0.360;2023-07-13T05:46:52;10.13;;;3.13;;
42616;SDS011;28250;52.320;0.360;2023-07-13T05:49:18;7.70;;;2.90;;
42616;SDS011;28250;52.320;0.360;2023-07-13T05:51:44;6.40;;;2.83;;
42616;SDS011;28250;52.320;0.360;2023-07-13T05:54:11;9.75;;;2.85;;
42616;SDS011;28250;52.320;0.360;2023-07-13T05:56:37;8.38;;;2.83;;
42616;SDS011;28250;52.320;0.360;2023-07-13T05:59:04;8.00;;;2.70;;
42616;SDS011;28250;52.320;0.360;2023-07-13T06:01:30;8.27;;;2.70;;
42616;SDS011;28250;52.320;0.360;2023-07-13T06:03:57;7.40;;;2.57;;
42616;SDS011;28250;52.320;0.360;2023-07-13T06:06:23;10.20;;;3.23;;
42616;SDS011;28250;52.320;0.360;2023-07-13T06:08:50;5.67;;;2.53;;
42616;SDS011;28250;52.320;0.360;2023-07-13T06:11:21;9.30;;;3.22;;
42616;SDS011;28250;52.320;0.360;2023-07-13T06:13:48;9.57;;;2.67;;
42616;SDS011;28250;52.320;0.360;2023-07-13T06:16:15;6.00;;;2.20;;
42616;SDS011;28250;52.320;0.360;2023-07-13T06:18:42;7.80;;;3.00;;
42616;SDS011;28250;52.320;0.360;2023-07-13T06:21:10;5.65;;;2.33;;
42616;SDS011;28250;52.320;0.360;2023-07-13T06:23:41;6.18;;;2.72;;
42616;SDS011;28250;52.320;0.360;2023-07-13T06:26:08;8.75;;;2.83;;
42616;SDS011;28250;52.320;0.360;2023-07-13T06:28:35;7.88;;;2.60;;
42616;SDS011;28250;52.320;0.360;2023-07-13T06:31:04;6.50;;;2.22;;
42616;SDS011;28250;52.320;0.360;2023-07-13T06:33:32;4.72;;;2.00;;
42616;SDS011;28250;52.320;0.360;2023-07-13T06:35:59;8.23;;;2.57;;
42616;SDS011;28250;52.320;0.360;2023-07-13T06:38:26;5.00;;;2.47;;
42616;SDS011;28250;52.320;0.360;2023-07-13T06:40:52;6.20;;;2.00;;
42616;SDS011;28250;52.320;0.360;2023-07-13T06:43:19;4.32;;;2.30;;
42616;SDS011;28250;52.320;0.360;2023-07-13T06:45:46;6.80;;;2.47;;
42616;SDS011;28250;52.320;0.360;2023-07-13T06:48:15;6.55;;;2.35;;
42616;SDS011;28250;52.320;0.360;2023-07-13T06:50:42;4.88;;;2.25;;
42616;SDS011;28250;52.320;0.360;2023-07-13T06:53:12;5.93;;;2.30;;
42616;SDS011;28250;52.320;0.360;2023-07-13T06:55:39;7.03;;;2.40;;
42616;SDS011;28250;52.320;0.360;2023-07-13T06:58:06;8.10;;;2.33;;
42616;SDS011;28250;52.320;0.360;2023-07-13T07:00:32;5.50;;;2.25;;
42616;SDS011;28250;52.320;0.360;2023-07-13T07:02:58;11.90;;;2.28;;
42616;SDS011;28250;52.320;0.360;2023-07-13T07:05:25;4.05;;;2.17;;
42616;SDS011;28250;52.320;0.360;2023-07-13T07:07:52;3.33;;;1.98;;
42616;SDS011;28250;52.320;0.360;2023-07-13T07:10:19;7.20;;;2.55;;
42616;SDS011;28250;52.320;0.360;2023-07-13T07:12:46;4.20;;;2.53;;
42616;SDS011;28250;52.320;0.360;2023-07-13T07:15:12;6.87;;;3.10;;
42616;SDS011;28250;52.320;0.360;2023-07-13T07:17:39;3.20;;;1.90;;
42616;SDS011;28250;52.320;0.360;2023-07-13T07:20:06;5.47;;;2.22;;
42616;SDS011;28250;52.320;0.360;2023-07-13T07:22:33;6.22;;;2.25;;
42616;SDS011;28250;52.320;0.360;2023-07-13T07:24:59;6.03;;;2.60;;
42616;SDS011;28250;52.320;0.360;2023-07-13T07:27:26;7.23;;;2.47;;
42616;SDS011;28250;52.320;0.360;2023-07-13T07:29:53;5.35;;;2.30;;
42616;SDS011;28250;52.320;0.360;2023-07-13T07:32:19;7.57;;;2.00;;
42616;SDS011;28250;52.320;0.360;2023-07-13T07:34:46;5.38;;;2.13;;
42616;SDS011;28250;52.320;0.360;2023-07-13T07:37:13;3.97;;;2.30;;
42616;SDS011;28250;52.320;0.360;2023-07-13T07:42:06;3.65;;;1.90;;
42616;SDS011;28250;52.320;0.360;2023-07-13T07:44:33;5.40;;;2.37;;
42616;SDS011;28250;52.320;0.360;2023-07-13T07:47:00;7.47;;;2.47;;
42616;SDS011;28250;52.320;0.360;2023-07-13T07:49:26;5.97;;;1.90;;
42616;SDS011;28250;52.320;0.360;2023-07-13T07:51:53;4.90;;;2.10;;
42616;SDS011;28250;52.320;0.360;2023-07-13T07:54:19;4.87;;;1.80;;
42616;SDS011;28250;52.320;0.360;2023-07-13T07:56:46;7.82;;;2.53;;
42616;SDS011;28250;52.320;0.360;2023-07-13T07:59:12;7.30;;;2.58;;
42616;SDS011;28250;52.320;0.360;2023-07-13T08:01:38;7.47;;;2.30;;
42616;SDS011;28250;52.320;0.360;2023-07-13T08:04:05;6.90;;;1.90;;
42616;SDS011;28250;52.320;0.360;2023-07-13T08:06:32;2.97;;;2.00;;
42616;SDS011;28250;52.320;0.360;2023-07-13T08:08:59;4.05;;;1.92;;
42616;SDS011;28250;52.320;0.360;2023-07-13T08:11:26;7.97;;;1.88;;
42616;SDS011;28250;52.320;0.360;2023-07-13T08:13:53;4.85;;;1.85;;
42616;SDS011;28250;52.320;0.360;2023-07-13T08:16:19;3.42;;;2.00;;
42616;SDS011;28250;52.320;0.360;2023-07-13T08:18:46;5.55;;;2.00;;
42616;SDS011;28250;52.320;0.360;2023-07-13T08:21:13;3.53;;;1.80;;
42616;SDS011;28250;52.320;0.360;2023-07-13T08:23:39;4.87;;;2.27;;
42616;SDS011;28250;52.320;0.360;2023-07-13T08:26:06;4.00;;;2.63;;
42616;SDS011;28250;52.320;0.360;2023-07-13T08:28:33;3.92;;;2.00;;
42616;SDS011;28250;52.320;0.360;2023-07-13T08:31:03;3.63;;;1.67;;
42616;SDS011;28250;52.320;0.360;2023-07-13T08:33:31;4.53;;;1.80;;
42616;SDS011;28250;52.320;0.360;2023-07-13T08:35:59;3.33;;;1.90;;
42616;SDS011;28250;52.320;0.360;2023-07-13T08:38:25;4.60;;;1.67;;
42616;SDS011;28250;52.320;0.360;2023-07-13T08:40:52;3.40;;;2.10;;
42616;SDS011;28250;52.320;0.360;2023-07-13T08:43:22;3.40;;;1.55;;
42616;SDS011;28250;52.320;0.360;2023-07-13T08:45:54;3.78;;;1.70;;
42616;SDS011;28250;52.320;0.360;2023-07-13T08:51:28;6.30;;;2.55;;
42616;SDS011;28250;52.320;0.360;2023-07-13T08:54:22;3.20;;;1.60;;
42616;SDS011;28250;52.320;0.360;2023-07-13T08:56:54;2.97;;;1.95;;
42616;SDS011;28250;52.320;0.360;2023-07-13T08:59:22;6.10;;;1.80;;
42616;SDS011;28250;52.320;0.360;2023-07-13T09:04:32;6.43;;;2.17;;
42616;SDS011;28250;52.320;0.360;2023-07-13T09:18:00;5.55;;;2.08;;
42616;SDS011;28250;52.320;0.360;2023-07-13T09:20:32;4.55;;;1.70;;
42616;SDS011;28250;52.320;0.360;2023-07-13T09:23:22;3.88;;;1.70;;
42616;SDS011;28250;52.320;0.360;2023-07-13T09:25:53;3.60;;;1.95;;
42616;SDS011;28250;52.320;0.360;2023-07-13T09:28:39;3.53;;;1.63;;
42616;SDS011;28250;52.320;0.360;2023-07-13T09:31:14;3.15;;;1.83;;
42616;SDS011;28250;52.320;0.360;2023-07-13T09:34:04;2.30;;;1.60;;
42616;SDS011;28250;52.320;0.360;2023-07-13T09:36:35;3.53;;;1.70;;
42616;SDS011;28250;52.320;0.360;2023-07-13T09:39:03;3.17;;;1.48;;
42616;SDS011;28250;52.320;0.360;2023-07-13T09:41:41;5.50;;;1.80;;
42616;SDS011;28250;52.320;0.360;2023-07-13T09:44:16;4.18;;;1.70;;
42616;SDS011;28250;52.320;0.360;2023-07-13T09:46:46;4.22;;;1.55;;
42616;SDS011;28250;52.320;0.360;2023-07-13T09:49:18;2.85;;;1.73;;
42616;SDS011;28250;52.320;0.360;2023-07-13T09:51:48;2.80;;;1.45;;
42616;SDS011;28250;52.320;0.360;2023-07-13T09:54:25;6.93;;;1.60;;
42616;SDS011;28250;52.320;0.360;2023-07-13T09:56:55;1.47;;;1.20;;
42616;SDS011;28250;52.320;0.360;2023-07-13T09:59:24;3.40;;;1.75;;
42616;SDS011;28250;52.320;0.360;2023-07-13T10:01:58;2.08;;;1.60;;
42616;SDS011;28250;52.320;0.360;2023-07-13T10:04:27;2.10;;;1.67;;
42616;SDS011;28250;52.320;0.360;2023-07-13T10:07:08;3.45;;;1.52;;
42616;SDS011;28250;52.320;0.360;2023-07-13T10:09:36;4.10;;;1.48;;
42616;SDS011;28250;52.320;0.360;2023-07-13T10:12:04;4.55;;;1.73;;
42616;SDS011;28250;52.320;0.360;2023-07-13T10:14:39;4.43;;;1.88;;
42616;SDS011;28250;52.320;0.360;2023-07-13T10:17:08;5.20;;;1.75;;
42616;SDS011;28250;52.320;0.360;2023-07-13T10:19:38;2.38;;;1.80;;
42616;SDS011;28250;52.320;0.360;2023-07-13T10:22:12;3.80;;;1.90;;
42616;SDS011;28250;52.320;0.360;2023-07-13T10:24:49;4.07;;;2.00;;
42616;SDS011;28250;52.320;0.360;2023-07-13T10:27:20;6.32;;;1.80;;
42616;SDS011;28250;52.320;0.360;2023-07-13T10:32:48;2.90;;;1.85;;
42616;SDS011;28250;52.320;0.360;2023-07-13T10:35:17;2.90;;;1.77;;
42616;SDS011;28250;52.320;0.360;2023-07-13T10:37:47;1.92;;;1.40;;
42616;SDS011;28250;52.320;0.360;2023-07-13T10:40:18;4.88;;;2.00;;
42616;SDS011;28250;52.320;0.360;2023-07-13T10:42:57;3.35;;;1.40;;
42616;SDS011;28250;52.320;0.360;2023-07-13T10:45:25;1.83;;;1.55;;
42616;SDS011;28250;52.320;0.360;2023-07-13T10:47:59;3.30;;;1.77;;
42616;SDS011;28250;52.320;0.360;2023-07-13T10:50:26;3.80;;;1.58;;
42616;SDS011;28250;52.320;0.360;2023-07-13T10:53:01;2.67;;;1.73;;
42616;SDS011;28250;52.320;0.360;2023-07-13T10:58:03;3.90;;;1.40;;
42616;SDS011;28250;52.320;0.360;2023-07-13T11:03:30;3.38;;;1.55;;
42616;SDS011;28250;52.320;0.360;2023-07-13T11:06:04;3.65;;;1.67;;
42616;SDS011;28250;52.320;0.360;2023-07-13T11:10:58;3.40;;;1.98;;
42616;SDS011;28250;52.320;0.360;2023-07-13T11:16:32;3.65;;;1.63;;
42616;SDS011;28250;52.320;0.360;2023-07-13T11:19:24;3.55;;;1.60;;
42616;SDS011;28250;52.320;0.360;2023-07-13T11:33:53;4.40;;;2.10;;
42616;SDS011;28250;52.320;0.360;2023-07-13T11:41:06;3.63;;;1.85;;
42616;SDS011;28250;52.320;0.360;2023-07-13T11:43:54;3.00;;;1.95;;
42616;SDS011;28250;52.320;0.360;2023-07-13T11:46:28;3.72;;;1.83;;
42616;SDS011;28250;52.320;0.360;2023-07-13T11:48:54;4.03;;;2.20;;
42616;SDS011;28250;52.320;0.360;2023-07-13T11:51:21;2.97;;;1.45;;
42616;SDS011;28250;52.320;0.360;2023-07-13T11:53:53;4.05;;;2.00;;
42616;SDS011;28250;52.320;0.360;2023-07-13T11:56:20;2.88;;;1.50;;
42616;SDS011;28250;52.320;0.360;2023-07-13T12:01:24;3.38;;;1.80;;
42616;SDS011;28250;52.320;0.360;2023-07-13T12:04:08;3.58;;;1.60;;
42616;SDS011;28250;52.320;0.360;2023-07-13T12:06:46;3.55;;;1.48;;
42616;SDS011;28250;52.320;0.360;2023-07-13T12:09:25;2.90;;;1.83;;
42616;SDS011;28250;52.320;0.360;2023-07-13T12:11:53;3.25;;;1.52;;
42616;SDS011;28250;52.320;0.360;2023-07-13T12:14:19;3.17;;;1.42;;
42616;SDS011;28250;52.320;0.360;2023-07-13T12:16:50;6.68;;;2.03;;
42616;SDS011;28250;52.320;0.360;2023-07-13T12:19:17;3.17;;;1.48;;
42616;SDS011;28250;52.320;0.360;2023-07-13T12:21:45;3.30;;;1.42;;
42616;SDS011;28250;52.320;0.360;2023-07-13T12:24:16;2.35;;;1.70;;
42616;SDS011;28250;52.320;0.360;2023-07-13T12:26:44;1.92;;;1.40;;
42616;SDS011;28250;52.320;0.360;2023-07-13T12:29:16;3.38;;;1.70;;
42616;SDS011;28250;52.320;0.360;2023-07-13T12:31:44;2.08;;;1.50;;
42616;SDS011;28250;52.320;0.360;2023-07-13T12:34:12;4.00;;;1.63;;
42616;SDS011;28250;52.320;0.360;2023-07-13T12:37:02;3.90;;;2.10;;
42616;SDS011;28250;52.320;0.360;2023-07-13T12:39:35;2.70;;;1.67;;
42616;SDS011;28250;52.320;0.360;2023-07-13T12:45:01;4.57;;;1.90;;
42616;SDS011;28250;52.320;0.360;2023-07-13T12:47:43;2.28;;;1.77;;
42616;SDS011;28250;52.320;0.360;2023-07-13T12:50:17;4.15;;;1.85;;
42616;SDS011;28250;52.320;0.360;2023-07-13T12:52:49;2.80;;;1.85;;
42616;SDS011;28250;52.320;0.360;2023-07-13T12:55:20;2.13;;;1.55;;
42616;SDS011;28250;52.320;0.360;2023-07-13T12:57:51;2.33;;;1.88;;
42616;SDS011;28250;52.320;0.360;2023-07-13T13:00:32;2.38;;;1.77;;
42616;SDS011;28250;52.320;0.360;2023-07-13T13:03:21;3.80;;;1.98;;
42616;SDS011;28250;52.320;0.360;2023-07-13T13:06:02;2.33;;;1.60;;
42616;SDS011;28250;52.320;0.360;2023-07-13T13:08:45;2.13;;;1.63;;
42616;SDS011;28250;52.320;0.360;2023-07-13T13:11:14;3.35;;;1.88;;
42616;SDS011;28250;52.320;0.360;2023-07-13T13:13:41;2.97;;;1.73;;
42616;SDS011;28250;52.320;0.360;2023-07-13T13:18:44;3.05;;;2.00;;
42616;SDS011;28250;52.320;0.360;2023-07-13T13:21:10;2.83;;;1.85;;
42616;SDS011;28250;52.320;0.360;2023-07-13T13:23:37;5.68;;;1.85;;
42616;SDS011;28250;52.320;0.360;2023-07-13T13:26:05;4.57;;;2.42;;
42616;SDS011;28250;52.320;0.360;2023-07-13T13:28:38;4.95;;;2.08;;
42616;SDS011;28250;52.320;0.360;2023-07-13T13:31:04;3.35;;;2.20;;
42616;SDS011;28250;52.320;0.360;2023-07-13T13:33:31;4.40;;;1.90;;
42616;SDS011;28250;52.320;0.360;2023-07-13T13:35:58;2.72;;;1.92;;
42616;SDS011;28250;52.320;0.360;2023-07-13T13:38:25;4.28;;;1.85;;
42616;SDS011;28250;52.320;0.360;2023-07-13T13:40:52;3.10;;;2.03;;
42616;SDS011;28250;52.320;0.360;2023-07-13T13:45:51;2.50;;;1.83;;
42616;SDS011;28250;52.320;0.360;2023-07-13T13:48:26;3.17;;;2.17;;
42616;SDS011;28250;52.320;0.360;2023-07-13T13:51:00;2.45;;;2.25;;
42616;SDS011;28250;52.320;0.360;2023-07-13T13:53:28;3.17;;;2.10;;
42616;SDS011;28250;52.320;0.360;2023-07-13T13:55:55;3.15;;;2.10;;
42616;SDS011;28250;52.320;0.360;2023-07-13T13:58:21;2.90;;;2.08;;
42616;SDS011;28250;52.320;0.360;2023-07-13T14:00:47;5.28;;;2.00;;
42616;SDS011;28250;52.320;0.360;2023-07-13T14:05:42;3.53;;;2.08;;
42616;SDS011;28250;52.320;0.360;2023-07-13T14:08:19;3.75;;;1.95;;
42616;SDS011;28250;52.320;0.360;2023-07-13T14:10:46;1.70;;;1.60;;
42616;SDS011;28250;52.320;0.360;2023-07-13T14:13:18;2.65;;;1.85;;
42616;SDS011;28250;52.320;0.360;2023-07-13T14:15:57;1.92;;;1.63;;
42616;SDS011;28250;52.320;0.360;2023-07-13T14:20:50;3.60;;;1.75;;
42616;SDS011;28250;52.320;0.360;2023-07-13T14:23:20;3.40;;;1.98;;
42616;SDS011;28250;52.320;0.360;2023-07-13T14:25:46;2.25;;;1.73;;
42616;SDS011;28250;52.320;0.360;2023-07-13T14:30:45;3.17;;;1.77;;
42616;SDS011;28250;52.320;0.360;2023-07-13T14:33:12;2.67;;;1.80;;
42616;SDS011;28250;52.320;0.360;2023-07-13T14:35:38;2.22;;;1.67;;
42616;SDS011;28250;52.320;0.360;2023-07-13T14:38:15;3.17;;;1.83;;
42616;SDS011;28250;52.320;0.360;2023-07-13T14:40:42;4.60;;;1.70;;
42616;SDS011;28250;52.320;0.360;2023-07-13T14:43:10;2.92;;;1.92;;
42616;SDS011;28250;52.320;0.360;2023-07-13T14:45:40;2.25;;;1.60;;
42616;SDS011;28250;52.320;0.360;2023-07-13T14:48:27;2.65;;;1.83;;
42616;SDS011;28250;52.320;0.360;2023-07-13T14:50:57;2.20;;;1.67;;
42616;SDS011;28250;52.320;0.360;2023-07-13T14:53:25;2.22;;;1.30;;
42616;SDS011;28250;52.320;0.360;2023-07-13T14:55:54;4.43;;;1.55;;
42616;SDS011;28250;52.320;0.360;2023-07-13T14:58:21;3.33;;;1.60;;
42616;SDS011;28250;52.320;0.360;2023-07-13T15:00:47;2.30;;;1.65;;
42616;SDS011;28250;52.320;0.360;2023-07-13T15:03:20;1.88;;;1.65;;
42616;SDS011;28250;52.320;0.360;2023-07-13T15:05:48;2.72;;;1.52;;
42616;SDS011;28250;52.320;0.360;2023-07-13T15:08:15;2.85;;;1.80;;
42616;SDS011;28250;52.320;0.360;2023-07-13T15:10:42;2.10;;;1.67;;
42616;SDS011;28250;52.320;0.360;2023-07-13T15:13:18;3.28;;;1.98;;
42616;SDS011;28250;52.320;0.360;2023-07-13T15:15:46;2.15;;;1.70;;
42616;SDS011;28250;52.320;0.360;2023-07-13T15:18:15;3.58;;;2.13;;
42616;SDS011;28250;52.320;0.360;2023-07-13T15:20:43;2.85;;;2.00;;
42616;SDS011;28250;52.320;0.360;2023-07-13T15:23:11;2.95;;;1.90;;
42616;SDS011;28250;52.320;0.360;2023-07-13T15:25:38;2.75;;;2.10;;
42616;SDS011;28250;52.320;0.360;2023-07-13T15:28:07;3.33;;;2.30;;
42616;SDS011;28250;52.320;0.360;2023-07-13T15:30:44;3.60;;;2.25;;
42616;SDS011;28250;52.320;0.360;2023-07-13T15:33:16;2.53;;;2.08;;
42616;SDS011;28250;52.320;0.360;2023-07-13T15:35:53;4.38;;;2.20;;
42616;SDS011;28250;52.320;0.360;2023-07-13T15:38:22;2.17;;;1.98;;
42616;SDS011;28250;52.320;0.360;2023-07-13T15:40:50;4.45;;;2.40;;
42616;SDS011;28250;52.320;0.360;2023-07-13T15:43:17;3.20;;;2.38;;
42616;SDS011;28250;52.320;0.360;2023-07-13T15:45:44;3.05;;;2.15;;
42616;SDS011;28250;52.320;0.360;2023-07-13T15:48:13;4.22;;;2.40;;
42616;SDS011;28250;52.320;0.360;2023-07-13T15:50:50;2.53;;;2.13;;
42616;SDS011;28250;52.320;0.360;2023-07-13T15:53:19;3.35;;;1.88;;
42616;SDS011;28250;52.320;0.360;2023-07-13T15:55:51;3.75;;;2.00;;
42616;SDS011;28250;52.320;0.360;2023-07-13T15:58:18;3.30;;;2.50;;
42616;SDS011;28250;52.320;0.360;2023-07-13T16:00:45;2.13;;;1.90;;
42616;SDS011;28250;52.320;0.360;2023-07-13T16:03:13;3.33;;;1.77;;
42616;SDS011;28250;52.320;0.360;2023-07-13T16:05:39;2.65;;;2.42;;
42616;SDS011;28250;52.320;0.360;2023-07-13T16:08:06;4.37;;;2.27;;
42616;SDS011;28250;52.320;0.360;2023-07-13T16:10:49;2.00;;;1.77;;
42616;SDS011;28250;52.320;0.360;2023-07-13T16:13:16;3.80;;;2.17;;
42616;SDS011;28250;52.320;0.360;2023-07-13T16:15:46;3.00;;;2.00;;
42616;SDS011;28250;52.320;0.360;2023-07-13T16:18:13;4.82;;;1.80;;
42616;SDS011;28250;52.320;0.360;2023-07-13T16:20:43;2.72;;;2.05;;
42616;SDS011;28250;52.320;0.360;2023-07-13T16:23:11;4.25;;;2.40;;